sensor_id;sensor_type;location;lat;lon;timestamp;temperature;humidity
2477;DHT22;1249;51.270;6.756;2023-03-01T00:01:17;6.40;99.90
2477;DHT22;1249;51.270;6.756;2023-03-01T00:03:44;6.50;99.90
2477;DHT22;1249;51.270;6.756;2023-03-01T00:06:11;6.50;99.90
2477;DHT22;1249;51.270;6.756;2023-03-01T00:08:38;6.50;99.90
2477;DHT22;1249;51.270;6.756;2023-03-01T00:11:07;6.50;99.90
2477;DHT22;1249;51.270;6.756;2023-03-01T00:13:36;6.40;99.90
2477;DHT22;1249;51.270;6.756;2023-03-01T00:16:03;6.40;99.90
2477;DHT22;1249;51.270;6.756;2023-03-01T00:18:30;6.40;99.90
2477;DHT22;1249;51.270;6.756;2023-03-01T00:20:58;6.40;99.90
2477;DHT22;1249;51.270;6.756;2023-03-01T00:23:25;6.40;99.90
2477;DHT22;1249;51.270;6.756;2023-03-01T00:25:52;6.50;99.90
2477;DHT22;1249;51.270;6.756;2023-03-01T00:28:19;6.40;99.90
2477;DHT22;1249;51.270;6.756;2023-03-01T00:30:48;6.40;99.90
2477;DHT22;1249;51.270;6.756;2023-03-01T00:33:15;6.40;99.90
2477;DHT22;1249;51.270;6.756;2023-03-01T00:35:41;6.40;99.90
2477;DHT22;1249;51.270;6.756;2023-03-01T00:38:08;6.30;99.90
2477;DHT22;1249;51.270;6.756;2023-03-01T00:40:36;6.30;99.90
2477;DHT22;1249;51.270;6.756;2023-03-01T00:43:03;6.30;99.90
2477;DHT22;1249;51.270;6.756;2023-03-01T00:45:30;6.20;99.90
2477;DHT22;1249;51.270;6.756;2023-03-01T00:47:58;6.20;99.90
2477;DHT22;1249;51.270;6.756;2023-03-01T00:50:25;6.20;99.90
2477;DHT22;1249;51.270;6.756;2023-03-01T00:52:53;6.30;99.90
2477;DHT22;1249;51.270;6.756;2023-03-01T00:55:20;6.20;99.90
2477;DHT22;1249;51.270;6.756;2023-03-01T00:57:46;6.20;99.90
2477;DHT22;1249;51.270;6.756;2023-03-01T01:00:13;6.10;99.90
2477;DHT22;1249;51.270;6.756;2023-03-01T01:02:40;6.10;99.90
2477;DHT22;1249;51.270;6.756;2023-03-01T01:05:09;6.10;99.90
2477;DHT22;1249;51.270;6.756;2023-03-01T01:07:36;6.10;99.90
2477;DHT22;1249;51.270;6.756;2023-03-01T01:10:03;6.10;99.90
2477;DHT22;1249;51.270;6.756;2023-03-01T01:12:30;6.10;99.90
2477;DHT22;1249;51.270;6.756;2023-03-01T01:14:57;6.00;99.90
2477;DHT22;1249;51.270;6.756;2023-03-01T01:17:23;6.10;99.90
2477;DHT22;1249;51.270;6.756;2023-03-01T01:19:50;6.00;99.90
2477;DHT22;1249;51.270;6.756;2023-03-01T01:22:18;6.10;99.90
2477;DHT22;1249;51.270;6.756;2023-03-01T01:24:45;6.00;99.90
2477;DHT22;1249;51.270;6.756;2023-03-01T01:27:12;6.00;99.90
2477;DHT22;1249;51.270;6.756;2023-03-01T01:29:38;6.00;99.90
2477;DHT22;1249;51.270;6.756;2023-03-01T01:32:07;6.00;99.90
2477;DHT22;1249;51.270;6.756;2023-03-01T01:34:34;5.90;99.90
2477;DHT22;1249;51.270;6.756;2023-03-01T01:37:00;5.90;99.90
2477;DHT22;1249;51.270;6.756;2023-03-01T01:39:29;5.90;99.90
2477;DHT22;1249;51.270;6.756;2023-03-01T01:41:56;5.90;99.90
2477;DHT22;1249;51.270;6.756;2023-03-01T01:44:24;5.90;99.90
2477;DHT22;1249;51.270;6.756;2023-03-01T01:46:54;5.90;99.90
2477;DHT22;1249;51.270;6.756;2023-03-01T01:49:26;5.90;99.90
2477;DHT22;1249;51.270;6.756;2023-03-01T01:51:58;5.90;99.90
2477;DHT22;1249;51.270;6.756;2023-03-01T01:54:31;5.90;99.90
2477;DHT22;1249;51.270;6.756;2023-03-01T01:57:03;5.80;99.90
2477;DHT22;1249;51.270;6.756;2023-03-01T01:59:31;5.70;99.90
2477;DHT22;1249;51.270;6.756;2023-03-01T02:02:00;5.80;99.90
2477;DHT22;1249;51.270;6.756;2023-03-01T02:04:28;5.80;99.90
2477;DHT22;1249;51.270;6.756;2023-03-01T02:06:59;5.80;99.90
2477;DHT22;1249;51.270;6.756;2023-03-01T02:09:29;5.80;99.90
2477;DHT22;1249;51.270;6.756;2023-03-01T02:11:57;5.70;99.90
2477;DHT22;1249;51.270;6.756;2023-03-01T02:14:24;5.60;99.90
2477;DHT22;1249;51.270;6.756;2023-03-01T02:16:52;5.60;99.90
2477;DHT22;1249;51.270;6.756;2023-03-01T02:19:30;5.70;99.90
2477;DHT22;1249;51.270;6.756;2023-03-01T02:22:05;5.70;99.90
2477;DHT22;1249;51.270;6.756;2023-03-01T02:24:44;5.60;99.90
2477;DHT22;1249;51.270;6.756;2023-03-01T02:27:18;5.60;99.90
2477;DHT22;1249;51.270;6.756;2023-03-01T02:29:51;5.50;99.90
2477;DHT22;1249;51.270;6.756;2023-03-01T02:32:19;5.60;99.90
2477;DHT22;1249;51.270;6.756;2023-03-01T02:34:51;5.60;99.90
2477;DHT22;1249;51.270;6.756;2023-03-01T02:37:19;5.50;99.90
2477;DHT22;1249;51.270;6.756;2023-03-01T02:39:53;5.60;99.90
2477;DHT22;1249;51.270;6.756;2023-03-01T02:42:26;5.60;99.90
2477;DHT22;1249;51.270;6.756;2023-03-01T02:44:56;5.50;99.90
2477;DHT22;1249;51.270;6.756;2023-03-01T02:47:23;5.50;99.90
2477;DHT22;1249;51.270;6.756;2023-03-01T02:49:49;5.40;99.90
2477;DHT22;1249;51.270;6.756;2023-03-01T02:52:30;5.50;99.90
2477;DHT22;1249;51.270;6.756;2023-03-01T02:55:03;5.40;99.90
2477;DHT22;1249;51.270;6.756;2023-03-01T02:57:32;5.40;99.90
2477;DHT22;1249;51.270;6.756;2023-03-01T03:00:05;5.60;99.90
2477;DHT22;1249;51.270;6.756;2023-03-01T03:02:34;5.40;99.90
2477;DHT22;1249;51.270;6.756;2023-03-01T03:05:07;5.40;99.90
2477;DHT22;1249;51.270;6.756;2023-03-01T03:07:35;5.40;99.90
2477;DHT22;1249;51.270;6.756;2023-03-01T03:10:03;5.50;99.90
2477;DHT22;1249;51.270;6.756;2023-03-01T03:12:31;5.40;99.90
2477;DHT22;1249;51.270;6.756;2023-03-01T03:14:57;5.30;99.90
2477;DHT22;1249;51.270;6.756;2023-03-01T03:17:26;5.30;99.90
2477;DHT22;1249;51.270;6.756;2023-03-01T03:19:52;5.30;99.90
2477;DHT22;1249;51.270;6.756;2023-03-01T03:22:19;5.20;99.90
2477;DHT22;1249;51.270;6.756;2023-03-01T03:24:46;5.20;99.90
2477;DHT22;1249;51.270;6.756;2023-03-01T03:27:12;5.20;99.90
2477;DHT22;1249;51.270;6.756;2023-03-01T03:29:39;5.20;99.90
2477;DHT22;1249;51.270;6.756;2023-03-01T03:32:06;5.30;99.90
2477;DHT22;1249;51.270;6.756;2023-03-01T03:34:34;5.20;99.90
2477;DHT22;1249;51.270;6.756;2023-03-01T03:37:01;5.20;99.90
2477;DHT22;1249;51.270;6.756;2023-03-01T03:39:27;5.20;99.90
2477;DHT22;1249;51.270;6.756;2023-03-01T03:42:00;5.20;99.90
2477;DHT22;1249;51.270;6.756;2023-03-01T03:44:27;5.20;99.90
2477;DHT22;1249;51.270;6.756;2023-03-01T03:46:53;5.10;99.90
2477;DHT22;1249;51.270;6.756;2023-03-01T03:49:20;5.10;99.90
2477;DHT22;1249;51.270;6.756;2023-03-01T03:51:48;5.10;99.90
2477;DHT22;1249;51.270;6.756;2023-03-01T03:54:15;5.10;99.90
2477;DHT22;1249;51.270;6.756;2023-03-01T03:56:42;5.10;99.90
2477;DHT22;1249;51.270;6.756;2023-03-01T03:59:09;5.10;99.90
2477;DHT22;1249;51.270;6.756;2023-03-01T04:01:36;5.00;99.90
2477;DHT22;1249;51.270;6.756;2023-03-01T04:04:03;5.00;99.90
2477;DHT22;1249;51.270;6.756;2023-03-01T04:06:31;5.00;99.90
2477;DHT22;1249;51.270;6.756;2023-03-01T04:08:59;5.00;99.90
2477;DHT22;1249;51.270;6.756;2023-03-01T04:11:28;5.00;99.90
2477;DHT22;1249;51.270;6.756;2023-03-01T04:13:57;5.00;99.90
2477;DHT22;1249;51.270;6.756;2023-03-01T04:16:24;4.90;99.90
2477;DHT22;1249;51.270;6.756;2023-03-01T04:18:51;5.00;99.90
2477;DHT22;1249;51.270;6.756;2023-03-01T04:21:20;4.90;99.90
2477;DHT22;1249;51.270;6.756;2023-03-01T04:23:47;4.90;99.90
2477;DHT22;1249;51.270;6.756;2023-03-01T04:26:15;5.00;99.90
2477;DHT22;1249;51.270;6.756;2023-03-01T04:28:42;4.90;99.90
2477;DHT22;1249;51.270;6.756;2023-03-01T04:31:12;4.90;99.90
2477;DHT22;1249;51.270;6.756;2023-03-01T04:33:42;4.90;99.90
2477;DHT22;1249;51.270;6.756;2023-03-01T04:36:11;4.90;99.90
2477;DHT22;1249;51.270;6.756;2023-03-01T04:38:38;4.90;99.90
2477;DHT22;1249;51.270;6.756;2023-03-01T04:41:05;4.80;99.90
2477;DHT22;1249;51.270;6.756;2023-03-01T04:43:34;4.80;99.90
2477;DHT22;1249;51.270;6.756;2023-03-01T04:46:01;5.00;99.90
2477;DHT22;1249;51.270;6.756;2023-03-01T04:48:29;4.70;99.90
2477;DHT22;1249;51.270;6.756;2023-03-01T04:50:57;4.70;99.90
2477;DHT22;1249;51.270;6.756;2023-03-01T04:53:24;4.80;99.90
2477;DHT22;1249;51.270;6.756;2023-03-01T04:55:51;4.70;99.90
2477;DHT22;1249;51.270;6.756;2023-03-01T04:58:18;4.70;99.90
2477;DHT22;1249;51.270;6.756;2023-03-01T05:00:46;4.70;99.90
2477;DHT22;1249;51.270;6.756;2023-03-01T05:03:12;4.70;99.90
2477;DHT22;1249;51.270;6.756;2023-03-01T05:05:45;4.70;99.90
2477;DHT22;1249;51.270;6.756;2023-03-01T05:08:12;4.70;99.90
2477;DHT22;1249;51.270;6.756;2023-03-01T05:10:43;4.70;99.90
2477;DHT22;1249;51.270;6.756;2023-03-01T05:13:11;4.70;99.90
2477;DHT22;1249;51.270;6.756;2023-03-01T05:15:40;4.70;99.90
2477;DHT22;1249;51.270;6.756;2023-03-01T05:18:08;4.60;99.90
2477;DHT22;1249;51.270;6.756;2023-03-01T05:20:37;4.60;99.90
2477;DHT22;1249;51.270;6.756;2023-03-01T05:23:05;4.70;99.90
2477;DHT22;1249;51.270;6.756;2023-03-01T05:25:33;4.60;99.90
2477;DHT22;1249;51.270;6.756;2023-03-01T05:28:00;4.60;99.90
2477;DHT22;1249;51.270;6.756;2023-03-01T05:30:30;4.60;99.90
2477;DHT22;1249;51.270;6.756;2023-03-01T05:32:58;4.60;99.90
2477;DHT22;1249;51.270;6.756;2023-03-01T05:35:26;4.60;99.90
2477;DHT22;1249;51.270;6.756;2023-03-01T05:37:53;4.60;99.90
2477;DHT22;1249;51.270;6.756;2023-03-01T05:40:21;4.60;99.90
2477;DHT22;1249;51.270;6.756;2023-03-01T05:42:51;4.60;99.90
2477;DHT22;1249;51.270;6.756;2023-03-01T05:45:18;4.60;99.90
2477;DHT22;1249;51.270;6.756;2023-03-01T05:47:46;4.60;99.90
2477;DHT22;1249;51.270;6.756;2023-03-01T05:50:15;4.50;99.90
2477;DHT22;1249;51.270;6.756;2023-03-01T05:52:46;4.50;99.90
2477;DHT22;1249;51.270;6.756;2023-03-01T05:55:14;4.50;99.90
2477;DHT22;1249;51.270;6.756;2023-03-01T05:57:40;4.50;99.90
2477;DHT22;1249;51.270;6.756;2023-03-01T06:00:08;4.50;99.90
2477;DHT22;1249;51.270;6.756;2023-03-01T06:02:35;4.50;99.90
2477;DHT22;1249;51.270;6.756;2023-03-01T06:05:03;4.40;99.90
2477;DHT22;1249;51.270;6.756;2023-03-01T06:07:30;4.40;99.90
2477;DHT22;1249;51.270;6.756;2023-03-01T06:09:59;4.50;99.90
2477;DHT22;1249;51.270;6.756;2023-03-01T06:12:25;4.50;99.90
2477;DHT22;1249;51.270;6.756;2023-03-01T06:14:52;4.40;99.90
2477;DHT22;1249;51.270;6.756;2023-03-01T06:17:19;4.40;99.90
2477;DHT22;1249;51.270;6.756;2023-03-01T06:19:46;4.40;99.90
2477;DHT22;1249;51.270;6.756;2023-03-01T06:22:13;4.40;99.90
2477;DHT22;1249;51.270;6.756;2023-03-01T06:24:40;4.40;99.90
2477;DHT22;1249;51.270;6.756;2023-03-01T06:27:08;4.50;99.90
2477;DHT22;1249;51.270;6.756;2023-03-01T06:29:35;4.40;99.90
2477;DHT22;1249;51.270;6.756;2023-03-01T06:32:02;4.90;99.90
2477;DHT22;1249;51.270;6.756;2023-03-01T06:34:29;5.10;99.90
2477;DHT22;1249;51.270;6.756;2023-03-01T06:36:56;5.10;99.90
2477;DHT22;1249;51.270;6.756;2023-03-01T06:39:23;5.00;99.90
2477;DHT22;1249;51.270;6.756;2023-03-01T06:41:49;4.90;99.90
2477;DHT22;1249;51.270;6.756;2023-03-01T06:44:17;4.80;99.90
2477;DHT22;1249;51.270;6.756;2023-03-01T06:46:44;4.80;99.90
2477;DHT22;1249;51.270;6.756;2023-03-01T06:49:11;4.80;99.90
2477;DHT22;1249;51.270;6.756;2023-03-01T06:51:38;4.70;99.90
2477;DHT22;1249;51.270;6.756;2023-03-01T06:54:05;4.70;99.90
2477;DHT22;1249;51.270;6.756;2023-03-01T06:56:31;4.70;99.90
2477;DHT22;1249;51.270;6.756;2023-03-01T06:58:58;4.70;99.90
2477;DHT22;1249;51.270;6.756;2023-03-01T07:01:26;4.70;99.90
2477;DHT22;1249;51.270;6.756;2023-03-01T07:03:53;4.60;99.90
2477;DHT22;1249;51.270;6.756;2023-03-01T07:06:20;4.60;99.90
2477;DHT22;1249;51.270;6.756;2023-03-01T07:08:47;4.60;99.90
2477;DHT22;1249;51.270;6.756;2023-03-01T07:11:14;4.70;99.90
2477;DHT22;1249;51.270;6.756;2023-03-01T07:13:41;4.70;99.90
2477;DHT22;1249;51.270;6.756;2023-03-01T07:16:08;4.70;99.90
2477;DHT22;1249;51.270;6.756;2023-03-01T07:18:36;4.70;99.90
2477;DHT22;1249;51.270;6.756;2023-03-01T07:21:07;4.70;99.90
2477;DHT22;1249;51.270;6.756;2023-03-01T07:23:34;4.70;99.90
2477;DHT22;1249;51.270;6.756;2023-03-01T07:26:01;4.70;99.90
2477;DHT22;1249;51.270;6.756;2023-03-01T07:28:28;4.70;99.90
2477;DHT22;1249;51.270;6.756;2023-03-01T07:31:00;4.80;99.90
2477;DHT22;1249;51.270;6.756;2023-03-01T07:33:27;5.00;99.90
2477;DHT22;1249;51.270;6.756;2023-03-01T07:36:01;4.90;99.90
2477;DHT22;1249;51.270;6.756;2023-03-01T07:38:28;4.90;99.90
2477;DHT22;1249;51.270;6.756;2023-03-01T07:40:58;4.90;99.90
2477;DHT22;1249;51.270;6.756;2023-03-01T07:43:25;5.00;99.90
2477;DHT22;1249;51.270;6.756;2023-03-01T07:45:52;5.00;99.90
2477;DHT22;1249;51.270;6.756;2023-03-01T07:48:19;5.10;99.90
2477;DHT22;1249;51.270;6.756;2023-03-01T07:50:46;5.10;99.90
2477;DHT22;1249;51.270;6.756;2023-03-01T07:53:14;5.10;99.90
2477;DHT22;1249;51.270;6.756;2023-03-01T07:55:41;5.10;99.90
2477;DHT22;1249;51.270;6.756;2023-03-01T07:58:08;5.10;99.90
2477;DHT22;1249;51.270;6.756;2023-03-01T08:00:34;5.20;99.90
2477;DHT22;1249;51.270;6.756;2023-03-01T08:03:01;5.20;99.90
2477;DHT22;1249;51.270;6.756;2023-03-01T08:05:28;5.20;99.90
2477;DHT22;1249;51.270;6.756;2023-03-01T08:07:55;5.30;99.90
2477;DHT22;1249;51.270;6.756;2023-03-01T08:10:23;5.30;99.90
2477;DHT22;1249;51.270;6.756;2023-03-01T08:12:51;5.40;99.90
2477;DHT22;1249;51.270;6.756;2023-03-01T08:15:19;5.60;99.90
2477;DHT22;1249;51.270;6.756;2023-03-01T08:17:46;5.50;99.90
2477;DHT22;1249;51.270;6.756;2023-03-01T08:20:15;5.50;99.90
2477;DHT22;1249;51.270;6.756;2023-03-01T08:22:42;5.60;99.90
2477;DHT22;1249;51.270;6.756;2023-03-01T08:25:09;5.70;99.90
2477;DHT22;1249;51.270;6.756;2023-03-01T08:27:37;5.70;99.90
2477;DHT22;1249;51.270;6.756;2023-03-01T08:30:05;5.80;99.90
2477;DHT22;1249;51.270;6.756;2023-03-01T08:32:36;5.90;99.90
2477;DHT22;1249;51.270;6.756;2023-03-01T08:35:03;6.00;99.90
2477;DHT22;1249;51.270;6.756;2023-03-01T08:37:30;6.00;99.90
2477;DHT22;1249;51.270;6.756;2023-03-01T08:39:59;6.10;99.90
2477;DHT22;1249;51.270;6.756;2023-03-01T08:42:25;6.10;99.90
2477;DHT22;1249;51.270;6.756;2023-03-01T08:44:53;6.10;99.90
2477;DHT22;1249;51.270;6.756;2023-03-01T08:47:20;6.20;99.90
2477;DHT22;1249;51.270;6.756;2023-03-01T08:49:49;6.20;99.90
2477;DHT22;1249;51.270;6.756;2023-03-01T08:52:16;6.70;99.90
2477;DHT22;1249;51.270;6.756;2023-03-01T08:54:42;7.20;99.90
2477;DHT22;1249;51.270;6.756;2023-03-01T08:57:09;7.00;99.90
2477;DHT22;1249;51.270;6.756;2023-03-01T08:59:37;6.80;99.90
2477;DHT22;1249;51.270;6.756;2023-03-01T09:02:05;6.60;99.90
2477;DHT22;1249;51.270;6.756;2023-03-01T09:04:32;6.60;99.90
2477;DHT22;1249;51.270;6.756;2023-03-01T09:06:59;6.50;99.90
2477;DHT22;1249;51.270;6.756;2023-03-01T09:09:25;6.40;99.90
2477;DHT22;1249;51.270;6.756;2023-03-01T09:11:52;6.40;99.90
2477;DHT22;1249;51.270;6.756;2023-03-01T09:14:19;6.40;99.90
2477;DHT22;1249;51.270;6.756;2023-03-01T09:16:46;6.40;99.90
2477;DHT22;1249;51.270;6.756;2023-03-01T09:19:14;6.40;99.90
2477;DHT22;1249;51.270;6.756;2023-03-01T09:21:41;6.40;99.90
2477;DHT22;1249;51.270;6.756;2023-03-01T09:24:19;6.40;99.90
2477;DHT22;1249;51.270;6.756;2023-03-01T09:26:46;6.50;99.90
2477;DHT22;1249;51.270;6.756;2023-03-01T09:29:14;6.50;99.90
2477;DHT22;1249;51.270;6.756;2023-03-01T09:31:41;6.70;99.90
2477;DHT22;1249;51.270;6.756;2023-03-01T09:34:09;6.90;99.90
2477;DHT22;1249;51.270;6.756;2023-03-01T09:36:37;6.90;99.90
2477;DHT22;1249;51.270;6.756;2023-03-01T09:39:04;7.00;99.90
2477;DHT22;1249;51.270;6.756;2023-03-01T09:41:44;7.00;99.90
2477;DHT22;1249;51.270;6.756;2023-03-01T09:44:19;7.70;99.90
2477;DHT22;1249;51.270;6.756;2023-03-01T09:46:47;8.50;99.90
2477;DHT22;1249;51.270;6.756;2023-03-01T09:49:16;9.40;97.40
2477;DHT22;1249;51.270;6.756;2023-03-01T09:51:55;10.20;93.30
2477;DHT22;1249;51.270;6.756;2023-03-01T09:54:22;10.90;91.60
2477;DHT22;1249;51.270;6.756;2023-03-01T09:59:59;11.90;82.50
2477;DHT22;1249;51.270;6.756;2023-03-01T10:02:35;12.30;77.70
2477;DHT22;1249;51.270;6.756;2023-03-01T10:05:13;12.70;74.60
2477;DHT22;1249;51.270;6.756;2023-03-01T10:07:48;13.00;73.20
2477;DHT22;1249;51.270;6.756;2023-03-01T10:10:26;13.30;71.10
2477;DHT22;1249;51.270;6.756;2023-03-01T10:12:53;13.70;68.50
2477;DHT22;1249;51.270;6.756;2023-03-01T10:15:34;13.90;67.20
2477;DHT22;1249;51.270;6.756;2023-03-01T10:18:06;14.00;66.50
2477;DHT22;1249;51.270;6.756;2023-03-01T10:20:43;14.00;66.10
2477;DHT22;1249;51.270;6.756;2023-03-01T10:23:14;13.90;63.30
2477;DHT22;1249;51.270;6.756;2023-03-01T10:25:52;13.80;62.70
2477;DHT22;1249;51.270;6.756;2023-03-01T10:28:27;13.70;62.00
2477;DHT22;1249;51.270;6.756;2023-03-01T10:30:57;13.60;62.20
2477;DHT22;1249;51.270;6.756;2023-03-01T10:33:27;13.60;62.80
2477;DHT22;1249;51.270;6.756;2023-03-01T10:35:55;13.60;62.70
2477;DHT22;1249;51.270;6.756;2023-03-01T10:38:24;13.60;63.00
2477;DHT22;1249;51.270;6.756;2023-03-01T10:40:53;13.60;63.00
2477;DHT22;1249;51.270;6.756;2023-03-01T10:43:22;13.60;62.20
2477;DHT22;1249;51.270;6.756;2023-03-01T10:45:50;13.60;61.50
2477;DHT22;1249;51.270;6.756;2023-03-01T10:48:18;13.60;63.10
2477;DHT22;1249;51.270;6.756;2023-03-01T10:50:48;13.60;62.50
2477;DHT22;1249;51.270;6.756;2023-03-01T10:53:26;13.70;62.80
2477;DHT22;1249;51.270;6.756;2023-03-01T10:55:59;13.80;63.00
2477;DHT22;1249;51.270;6.756;2023-03-01T10:58:26;14.00;63.50
2477;DHT22;1249;51.270;6.756;2023-03-01T11:00:55;14.10;63.30
2477;DHT22;1249;51.270;6.756;2023-03-01T11:03:24;14.30;62.20
2477;DHT22;1249;51.270;6.756;2023-03-01T11:05:55;14.30;60.30
2477;DHT22;1249;51.270;6.756;2023-03-01T11:08:35;14.50;60.50
2477;DHT22;1249;51.270;6.756;2023-03-01T11:11:32;14.70;70.10
2477;DHT22;1249;51.270;6.756;2023-03-01T11:14:00;15.90;84.50
2477;DHT22;1249;51.270;6.756;2023-03-01T11:16:35;16.80;77.50
2477;DHT22;1249;51.270;6.756;2023-03-01T11:19:17;17.40;73.00
2477;DHT22;1249;51.270;6.756;2023-03-01T11:22:00;17.90;69.40
2477;DHT22;1249;51.270;6.756;2023-03-01T11:24:36;18.30;67.40
2477;DHT22;1249;51.270;6.756;2023-03-01T11:27:06;18.70;66.30
2477;DHT22;1249;51.270;6.756;2023-03-01T11:29:39;18.90;65.30
2477;DHT22;1249;51.270;6.756;2023-03-01T11:32:09;19.20;64.70
2477;DHT22;1249;51.270;6.756;2023-03-01T11:34:42;19.40;63.10
2477;DHT22;1249;51.270;6.756;2023-03-01T11:37:22;19.10;56.80
2477;DHT22;1249;51.270;6.756;2023-03-01T11:39:59;18.60;56.50
2477;DHT22;1249;51.270;6.756;2023-03-01T11:42:47;18.10;56.00
2477;DHT22;1249;51.270;6.756;2023-03-01T11:45:15;17.90;55.70
2477;DHT22;1249;51.270;6.756;2023-03-01T11:48:01;17.60;56.40
2477;DHT22;1249;51.270;6.756;2023-03-01T11:50:38;17.50;56.40
2477;DHT22;1249;51.270;6.756;2023-03-01T11:53:26;17.20;55.50
2477;DHT22;1249;51.270;6.756;2023-03-01T11:56:05;17.20;55.50
2477;DHT22;1249;51.270;6.756;2023-03-01T11:58:50;17.10;56.50
2477;DHT22;1249;51.270;6.756;2023-03-01T12:01:28;17.60;62.80
2477;DHT22;1249;51.270;6.756;2023-03-01T12:07:05;17.40;56.40
2477;DHT22;1249;51.270;6.756;2023-03-01T12:09:57;17.40;56.70
2477;DHT22;1249;51.270;6.756;2023-03-01T12:12:45;17.40;54.70
2477;DHT22;1249;51.270;6.756;2023-03-01T12:15:34;17.50;55.80
2477;DHT22;1249;51.270;6.756;2023-03-01T12:21:28;17.40;54.30
2477;DHT22;1249;51.270;6.756;2023-03-01T12:24:14;17.50;54.60
2477;DHT22;1249;51.270;6.756;2023-03-01T12:26:54;17.40;52.60
2477;DHT22;1249;51.270;6.756;2023-03-01T12:29:26;17.50;53.00
2477;DHT22;1249;51.270;6.756;2023-03-01T12:32:18;17.40;54.40
2477;DHT22;1249;51.270;6.756;2023-03-01T12:35:00;17.60;52.60
2477;DHT22;1249;51.270;6.756;2023-03-01T12:37:38;17.60;51.50
2477;DHT22;1249;51.270;6.756;2023-03-01T12:40:33;17.60;52.70
2477;DHT22;1249;51.270;6.756;2023-03-01T12:43:12;17.70;52.30
2477;DHT22;1249;51.270;6.756;2023-03-01T12:45:51;17.70;52.50
2477;DHT22;1249;51.270;6.756;2023-03-01T12:48:31;17.70;52.40
2477;DHT22;1249;51.270;6.756;2023-03-01T12:51:01;17.70;51.70
2477;DHT22;1249;51.270;6.756;2023-03-01T12:53:32;17.80;52.50
2477;DHT22;1249;51.270;6.756;2023-03-01T12:56:03;17.80;50.60
2477;DHT22;1249;51.270;6.756;2023-03-01T12:58:34;17.70;50.00
2477;DHT22;1249;51.270;6.756;2023-03-01T13:01:15;17.70;50.30
2477;DHT22;1249;51.270;6.756;2023-03-01T13:03:59;17.70;50.30
2477;DHT22;1249;51.270;6.756;2023-03-01T13:06:33;17.80;51.00
2477;DHT22;1249;51.270;6.756;2023-03-01T13:09:05;17.80;50.50
2477;DHT22;1249;51.270;6.756;2023-03-01T13:11:34;17.80;50.70
2477;DHT22;1249;51.270;6.756;2023-03-01T13:14:42;17.90;49.90
2477;DHT22;1249;51.270;6.756;2023-03-01T13:17:33;17.80;49.80
2477;DHT22;1249;51.270;6.756;2023-03-01T13:20:12;17.80;49.00
2477;DHT22;1249;51.270;6.756;2023-03-01T13:22:39;17.90;49.40
2477;DHT22;1249;51.270;6.756;2023-03-01T13:25:15;18.00;49.20
2477;DHT22;1249;51.270;6.756;2023-03-01T13:27:44;18.00;48.80
2477;DHT22;1249;51.270;6.756;2023-03-01T13:30:38;18.20;49.90
2477;DHT22;1249;51.270;6.756;2023-03-01T13:33:46;18.10;50.60
2477;DHT22;1249;51.270;6.756;2023-03-01T13:36:48;18.10;49.50
2477;DHT22;1249;51.270;6.756;2023-03-01T13:39:29;18.10;48.80
2477;DHT22;1249;51.270;6.756;2023-03-01T13:41:58;18.20;48.90
2477;DHT22;1249;51.270;6.756;2023-03-01T13:44:28;18.10;48.40
2477;DHT22;1249;51.270;6.756;2023-03-01T13:46:58;18.20;48.60
2477;DHT22;1249;51.270;6.756;2023-03-01T13:49:28;18.10;47.70
2477;DHT22;1249;51.270;6.756;2023-03-01T13:51:56;18.10;47.80
2477;DHT22;1249;51.270;6.756;2023-03-01T13:54:29;18.10;47.20
2477;DHT22;1249;51.270;6.756;2023-03-01T13:56:57;18.00;46.80
2477;DHT22;1249;51.270;6.756;2023-03-01T13:59:24;18.00;47.70
2477;DHT22;1249;51.270;6.756;2023-03-01T14:01:56;18.00;47.90
2477;DHT22;1249;51.270;6.756;2023-03-01T14:04:25;18.10;47.20
2477;DHT22;1249;51.270;6.756;2023-03-01T14:09:48;18.10;47.20
2477;DHT22;1249;51.270;6.756;2023-03-01T14:12:26;18.00;47.10
2477;DHT22;1249;51.270;6.756;2023-03-01T14:14:59;18.00;46.70
2477;DHT22;1249;51.270;6.756;2023-03-01T14:17:42;17.90;46.70
2477;DHT22;1249;51.270;6.756;2023-03-01T14:20:16;17.80;46.70
2477;DHT22;1249;51.270;6.756;2023-03-01T14:22:44;17.90;46.90
2477;DHT22;1249;51.270;6.756;2023-03-01T14:25:23;17.90;47.40
2477;DHT22;1249;51.270;6.756;2023-03-01T14:28:03;17.90;47.30
2477;DHT22;1249;51.270;6.756;2023-03-01T14:30:33;17.90;47.50
2477;DHT22;1249;51.270;6.756;2023-03-01T14:33:02;17.90;47.50
2477;DHT22;1249;51.270;6.756;2023-03-01T14:35:32;18.00;46.80
2477;DHT22;1249;51.270;6.756;2023-03-01T14:37:59;17.80;47.30
2477;DHT22;1249;51.270;6.756;2023-03-01T14:40:30;17.80;47.40
2477;DHT22;1249;51.270;6.756;2023-03-01T14:42:58;17.80;47.70
2477;DHT22;1249;51.270;6.756;2023-03-01T14:45:27;17.80;48.10
2477;DHT22;1249;51.270;6.756;2023-03-01T14:48:02;18.10;59.60
2477;DHT22;1249;51.270;6.756;2023-03-01T14:50:30;18.80;69.20
2477;DHT22;1249;51.270;6.756;2023-03-01T14:52:59;19.30;66.00
2477;DHT22;1249;51.270;6.756;2023-03-01T14:55:31;19.70;61.70
2477;DHT22;1249;51.270;6.756;2023-03-01T14:58:03;20.00;57.60
2477;DHT22;1249;51.270;6.756;2023-03-01T15:00:32;20.20;56.70
2477;DHT22;1249;51.270;6.756;2023-03-01T15:03:04;20.40;55.10
2477;DHT22;1249;51.270;6.756;2023-03-01T15:05:35;20.50;53.90
2477;DHT22;1249;51.270;6.756;2023-03-01T15:08:03;20.60;51.90
2477;DHT22;1249;51.270;6.756;2023-03-01T15:10:34;20.60;52.40
2477;DHT22;1249;51.270;6.756;2023-03-01T15:13:10;20.60;52.10
2477;DHT22;1249;51.270;6.756;2023-03-01T15:15:41;20.60;51.20
2477;DHT22;1249;51.270;6.756;2023-03-01T15:18:17;20.50;51.30
2477;DHT22;1249;51.270;6.756;2023-03-01T15:20:45;20.40;53.60
2477;DHT22;1249;51.270;6.756;2023-03-01T15:23:24;20.30;55.90
2477;DHT22;1249;51.270;6.756;2023-03-01T15:25:54;20.00;55.30
2477;DHT22;1249;51.270;6.756;2023-03-01T15:28:24;19.80;55.90
2477;DHT22;1249;51.270;6.756;2023-03-01T15:30:57;19.50;57.00
2477;DHT22;1249;51.270;6.756;2023-03-01T15:33:36;19.30;56.50
2477;DHT22;1249;51.270;6.756;2023-03-01T15:38:53;19.10;56.10
2477;DHT22;1249;51.270;6.756;2023-03-01T15:41:26;19.00;56.60
2477;DHT22;1249;51.270;6.756;2023-03-01T15:43:53;18.90;56.40
2477;DHT22;1249;51.270;6.756;2023-03-01T15:46:27;18.80;56.30
2477;DHT22;1249;51.270;6.756;2023-03-01T15:48:56;18.70;56.90
2477;DHT22;1249;51.270;6.756;2023-03-01T15:51:30;18.50;57.00
2477;DHT22;1249;51.270;6.756;2023-03-01T15:54:00;18.40;57.10
2477;DHT22;1249;51.270;6.756;2023-03-01T15:56:28;18.30;56.60
2477;DHT22;1249;51.270;6.756;2023-03-01T15:58:58;18.10;56.90
2477;DHT22;1249;51.270;6.756;2023-03-01T16:01:25;18.10;58.40
2477;DHT22;1249;51.270;6.756;2023-03-01T16:03:52;17.90;57.90
2477;DHT22;1249;51.270;6.756;2023-03-01T16:06:20;17.70;57.80
2477;DHT22;1249;51.270;6.756;2023-03-01T16:08:46;17.60;57.30
2477;DHT22;1249;51.270;6.756;2023-03-01T16:11:16;17.50;57.10
2477;DHT22;1249;51.270;6.756;2023-03-01T16:13:45;17.30;56.80
2477;DHT22;1249;51.270;6.756;2023-03-01T16:16:13;17.20;56.60
2477;DHT22;1249;51.270;6.756;2023-03-01T16:18:42;17.00;56.70
2477;DHT22;1249;51.270;6.756;2023-03-01T16:21:19;16.90;56.60
2477;DHT22;1249;51.270;6.756;2023-03-01T16:23:46;16.70;56.40
2477;DHT22;1249;51.270;6.756;2023-03-01T16:26:13;16.60;56.80
2477;DHT22;1249;51.270;6.756;2023-03-01T16:28:40;16.40;57.50
2477;DHT22;1249;51.270;6.756;2023-03-01T16:31:09;16.00;52.30
2477;DHT22;1249;51.270;6.756;2023-03-01T16:33:36;15.30;50.70
2477;DHT22;1249;51.270;6.756;2023-03-01T16:36:07;14.90;51.50
2477;DHT22;1249;51.270;6.756;2023-03-01T16:38:34;14.30;51.90
2477;DHT22;1249;51.270;6.756;2023-03-01T16:41:01;13.90;53.30
2477;DHT22;1249;51.270;6.756;2023-03-01T16:43:29;13.70;53.20
2477;DHT22;1249;51.270;6.756;2023-03-01T16:45:56;13.40;53.60
2477;DHT22;1249;51.270;6.756;2023-03-01T16:48:25;13.10;54.40